Sousse, Tunisia
Current Conditions -  °F | °C
As of 5:00 AM on Thursday 23 Oct 2014 (Local Time) from DTMB Reporting Station
Scattered Clouds Scattered Clouds  
Wind Chill: 68°   Ceiling: Unl
Heat Index: 68°   Visibility: 6mi
Dew Point: 50°   Wind: 20mph
Humidity: 52%   Direction: 300°WNW
Pressure: 29.94"   Gusts: NA
Location:  35.82°N, 10.63°E
Report Text: DTMB 230400Z 30017KT 9999 SCT020 20/10 Q1014 NOSIG
Loading
Personal Weather Stations






























Interactive Weather Map
Tropical Storm Tracking
New forecast layout! Learn more

10-Day Weather Forecast

Advertisements
Track Severe Weather on mobile